sensor_id;sensor_type;location;lat;lon;timestamp;P1;durP1;ratioP1;P2;durP2;ratioP2
14472;SDS011;7322;50.872;4.386;2023-05-07T00:00:37;3.20;;;2.05;;
14472;SDS011;7322;50.872;4.386;2023-05-07T00:03:05;4.88;;;1.85;;
14472;SDS011;7322;50.872;4.386;2023-05-07T00:05:32;3.15;;;1.83;;
14472;SDS011;7322;50.872;4.386;2023-05-07T00:07:59;2.22;;;1.80;;
14472;SDS011;7322;50.872;4.386;2023-05-07T00:10:26;2.65;;;1.88;;
14472;SDS011;7322;50.872;4.386;2023-05-07T00:12:54;2.80;;;1.70;;
14472;SDS011;7322;50.872;4.386;2023-05-07T00:15:21;3.38;;;1.90;;
14472;SDS011;7322;50.872;4.386;2023-05-07T00:17:48;3.95;;;1.83;;
14472;SDS011;7322;50.872;4.386;2023-05-07T00:20:15;2.25;;;1.60;;
14472;SDS011;7322;50.872;4.386;2023-05-07T00:22:42;3.22;;;1.83;;
14472;SDS011;7322;50.872;4.386;2023-05-07T00:25:09;2.95;;;1.52;;
14472;SDS011;7322;50.872;4.386;2023-05-07T00:27:36;2.70;;;1.70;;
14472;SDS011;7322;50.872;4.386;2023-05-07T00:30:05;2.25;;;1.40;;
14472;SDS011;7322;50.872;4.386;2023-05-07T00:32:33;3.78;;;1.90;;
14472;SDS011;7322;50.872;4.386;2023-05-07T00:35:00;2.72;;;1.85;;
14472;SDS011;7322;50.872;4.386;2023-05-07T00:37:28;3.10;;;1.85;;
14472;SDS011;7322;50.872;4.386;2023-05-07T00:39:55;3.65;;;1.65;;
14472;SDS011;7322;50.872;4.386;2023-05-07T00:42:22;2.35;;;1.65;;
14472;SDS011;7322;50.872;4.386;2023-05-07T00:44:50;3.58;;;1.73;;
14472;SDS011;7322;50.872;4.386;2023-05-07T00:47:18;2.60;;;1.80;;
14472;SDS011;7322;50.872;4.386;2023-05-07T00:49:45;4.13;;;1.80;;
14472;SDS011;7322;50.872;4.386;2023-05-07T00:52:14;1.88;;;1.40;;
14472;SDS011;7322;50.872;4.386;2023-05-07T00:54:43;2.00;;;1.50;;
14472;SDS011;7322;50.872;4.386;2023-05-07T00:57:11;2.08;;;1.50;;
14472;SDS011;7322;50.872;4.386;2023-05-07T00:59:38;3.13;;;1.90;;
14472;SDS011;7322;50.872;4.386;2023-05-07T01:02:05;2.10;;;1.55;;
14472;SDS011;7322;50.872;4.386;2023-05-07T01:04:35;2.17;;;1.75;;
14472;SDS011;7322;50.872;4.386;2023-05-07T01:07:03;2.83;;;1.85;;
14472;SDS011;7322;50.872;4.386;2023-05-07T01:09:32;3.60;;;1.85;;
14472;SDS011;7322;50.872;4.386;2023-05-07T01:12:01;2.72;;;1.60;;
14472;SDS011;7322;50.872;4.386;2023-05-07T01:14:29;2.15;;;1.80;;
14472;SDS011;7322;50.872;4.386;2023-05-07T01:16:58;2.58;;;1.70;;
14472;SDS011;7322;50.872;4.386;2023-05-07T01:19:25;3.38;;;1.80;;
14472;SDS011;7322;50.872;4.386;2023-05-07T01:21:56;3.17;;;1.77;;
14472;SDS011;7322;50.872;4.386;2023-05-07T01:24:37;1.98;;;1.60;;
14472;SDS011;7322;50.872;4.386;2023-05-07T01:27:05;3.17;;;1.60;;
14472;SDS011;7322;50.872;4.386;2023-05-07T01:29:33;2.45;;;1.60;;
14472;SDS011;7322;50.872;4.386;2023-05-07T01:32:02;2.70;;;1.48;;
14472;SDS011;7322;50.872;4.386;2023-05-07T01:34:40;2.33;;;1.50;;
14472;SDS011;7322;50.872;4.386;2023-05-07T01:37:09;3.33;;;1.58;;
14472;SDS011;7322;50.872;4.386;2023-05-07T01:39:42;2.25;;;1.50;;
14472;SDS011;7322;50.872;4.386;2023-05-07T01:42:09;1.98;;;1.40;;
14472;SDS011;7322;50.872;4.386;2023-05-07T01:44:37;2.42;;;1.60;;
14472;SDS011;7322;50.872;4.386;2023-05-07T01:47:05;1.83;;;1.52;;
14472;SDS011;7322;50.872;4.386;2023-05-07T01:49:34;1.95;;;1.40;;
14472;SDS011;7322;50.872;4.386;2023-05-07T01:52:03;2.50;;;1.60;;
14472;SDS011;7322;50.872;4.386;2023-05-07T01:54:36;2.97;;;1.60;;
14472;SDS011;7322;50.872;4.386;2023-05-07T01:59:43;2.60;;;1.33;;
14472;SDS011;7322;50.872;4.386;2023-05-07T02:02:11;1.92;;;1.48;;
14472;SDS011;7322;50.872;4.386;2023-05-07T02:04:38;3.25;;;1.70;;
14472;SDS011;7322;50.872;4.386;2023-05-07T02:07:06;3.53;;;1.50;;
14472;SDS011;7322;50.872;4.386;2023-05-07T02:09:33;2.25;;;1.67;;
14472;SDS011;7322;50.872;4.386;2023-05-07T02:12:00;3.67;;;1.50;;
14472;SDS011;7322;50.872;4.386;2023-05-07T02:14:28;1.98;;;1.52;;
14472;SDS011;7322;50.872;4.386;2023-05-07T02:17:01;3.63;;;1.77;;
14472;SDS011;7322;50.872;4.386;2023-05-07T02:19:30;2.88;;;1.45;;
14472;SDS011;7322;50.872;4.386;2023-05-07T02:22:03;1.92;;;1.40;;
14472;SDS011;7322;50.872;4.386;2023-05-07T02:24:44;2.38;;;1.38;;
14472;SDS011;7322;50.872;4.386;2023-05-07T02:27:13;3.17;;;1.52;;
14472;SDS011;7322;50.872;4.386;2023-05-07T02:29:42;2.03;;;1.42;;
14472;SDS011;7322;50.872;4.386;2023-05-07T02:32:09;2.20;;;1.48;;
14472;SDS011;7322;50.872;4.386;2023-05-07T02:34:36;2.67;;;1.52;;
14472;SDS011;7322;50.872;4.386;2023-05-07T02:37:03;2.10;;;1.50;;
14472;SDS011;7322;50.872;4.386;2023-05-07T02:39:36;2.45;;;1.38;;
14472;SDS011;7322;50.872;4.386;2023-05-07T02:42:03;2.63;;;1.70;;
14472;SDS011;7322;50.872;4.386;2023-05-07T02:44:34;3.72;;;1.70;;
14472;SDS011;7322;50.872;4.386;2023-05-07T02:47:05;3.47;;;1.45;;
14472;SDS011;7322;50.872;4.386;2023-05-07T02:49:41;2.75;;;1.50;;
14472;SDS011;7322;50.872;4.386;2023-05-07T02:52:14;2.92;;;1.75;;
14472;SDS011;7322;50.872;4.386;2023-05-07T02:54:41;5.00;;;1.60;;
14472;SDS011;7322;50.872;4.386;2023-05-07T02:57:09;1.30;;;1.20;;
14472;SDS011;7322;50.872;4.386;2023-05-07T03:02:14;2.90;;;1.38;;
14472;SDS011;7322;50.872;4.386;2023-05-07T03:07:13;2.58;;;1.30;;
14472;SDS011;7322;50.872;4.386;2023-05-07T03:09:41;2.42;;;1.30;;
14472;SDS011;7322;50.872;4.386;2023-05-07T03:12:08;1.77;;;1.50;;
14472;SDS011;7322;50.872;4.386;2023-05-07T03:14:36;1.95;;;1.38;;
14472;SDS011;7322;50.872;4.386;2023-05-07T03:17:03;1.50;;;1.30;;
14472;SDS011;7322;50.872;4.386;2023-05-07T03:19:32;2.25;;;1.48;;
14472;SDS011;7322;50.872;4.386;2023-05-07T03:21:59;1.45;;;1.30;;
14472;SDS011;7322;50.872;4.386;2023-05-07T03:24:26;2.58;;;1.40;;
14472;SDS011;7322;50.872;4.386;2023-05-07T03:26:54;3.22;;;1.75;;
14472;SDS011;7322;50.872;4.386;2023-05-07T03:29:21;2.03;;;1.40;;
14472;SDS011;7322;50.872;4.386;2023-05-07T03:31:54;2.13;;;1.42;;
14472;SDS011;7322;50.872;4.386;2023-05-07T03:34:21;2.10;;;1.48;;
14472;SDS011;7322;50.872;4.386;2023-05-07T03:36:50;2.90;;;1.70;;
14472;SDS011;7322;50.872;4.386;2023-05-07T03:39:17;2.42;;;1.45;;
14472;SDS011;7322;50.872;4.386;2023-05-07T03:41:44;2.22;;;1.40;;
14472;SDS011;7322;50.872;4.386;2023-05-07T03:44:11;2.80;;;1.25;;
14472;SDS011;7322;50.872;4.386;2023-05-07T03:46:38;2.83;;;1.38;;
14472;SDS011;7322;50.872;4.386;2023-05-07T03:49:05;1.95;;;1.30;;
14472;SDS011;7322;50.872;4.386;2023-05-07T03:51:32;2.85;;;1.25;;
14472;SDS011;7322;50.872;4.386;2023-05-07T03:54:03;2.72;;;1.42;;
14472;SDS011;7322;50.872;4.386;2023-05-07T03:56:30;2.67;;;1.45;;
14472;SDS011;7322;50.872;4.386;2023-05-07T03:58:57;2.08;;;1.55;;
14472;SDS011;7322;50.872;4.386;2023-05-07T04:03:57;2.38;;;1.38;;
14472;SDS011;7322;50.872;4.386;2023-05-07T04:06:25;2.80;;;1.40;;
14472;SDS011;7322;50.872;4.386;2023-05-07T04:08:52;3.60;;;1.20;;
14472;SDS011;7322;50.872;4.386;2023-05-07T04:11:21;3.20;;;1.48;;
14472;SDS011;7322;50.872;4.386;2023-05-07T04:13:49;3.55;;;1.25;;
14472;SDS011;7322;50.872;4.386;2023-05-07T04:16:16;4.95;;;1.73;;
14472;SDS011;7322;50.872;4.386;2023-05-07T04:18:43;2.13;;;1.50;;
14472;SDS011;7322;50.872;4.386;2023-05-07T04:21:13;2.95;;;1.40;;
14472;SDS011;7322;50.872;4.386;2023-05-07T04:26:27;5.57;;;1.65;;
14472;SDS011;7322;50.872;4.386;2023-05-07T04:29:09;3.28;;;1.48;;
14472;SDS011;7322;50.872;4.386;2023-05-07T04:31:37;3.97;;;1.67;;
14472;SDS011;7322;50.872;4.386;2023-05-07T04:34:05;6.03;;;1.90;;
14472;SDS011;7322;50.872;4.386;2023-05-07T04:36:39;5.57;;;1.60;;
14472;SDS011;7322;50.872;4.386;2023-05-07T04:39:07;4.32;;;1.67;;
14472;SDS011;7322;50.872;4.386;2023-05-07T04:41:40;7.63;;;1.90;;
14472;SDS011;7322;50.872;4.386;2023-05-07T04:44:09;11.15;;;1.73;;
14472;SDS011;7322;50.872;4.386;2023-05-07T04:46:44;5.97;;;1.95;;
14472;SDS011;7322;50.872;4.386;2023-05-07T04:49:10;4.45;;;1.60;;
14472;SDS011;7322;50.872;4.386;2023-05-07T04:51:44;5.50;;;1.85;;
14472;SDS011;7322;50.872;4.386;2023-05-07T04:54:13;3.17;;;1.73;;
14472;SDS011;7322;50.872;4.386;2023-05-07T04:56:42;4.72;;;1.58;;
14472;SDS011;7322;50.872;4.386;2023-05-07T04:59:10;3.72;;;1.77;;
14472;SDS011;7322;50.872;4.386;2023-05-07T05:01:37;7.15;;;1.80;;
14472;SDS011;7322;50.872;4.386;2023-05-07T05:04:06;6.50;;;1.80;;
14472;SDS011;7322;50.872;4.386;2023-05-07T05:06:42;4.03;;;1.50;;
14472;SDS011;7322;50.872;4.386;2023-05-07T05:09:09;5.25;;;1.88;;
14472;SDS011;7322;50.872;4.386;2023-05-07T05:11:44;4.70;;;1.90;;
14472;SDS011;7322;50.872;4.386;2023-05-07T05:14:13;6.65;;;1.65;;
14472;SDS011;7322;50.872;4.386;2023-05-07T05:16:41;5.85;;;1.83;;
14472;SDS011;7322;50.872;4.386;2023-05-07T05:19:13;5.97;;;1.60;;
14472;SDS011;7322;50.872;4.386;2023-05-07T05:21:41;2.85;;;1.40;;
14472;SDS011;7322;50.872;4.386;2023-05-07T05:24:14;3.42;;;1.65;;
14472;SDS011;7322;50.872;4.386;2023-05-07T05:29:16;5.75;;;1.98;;
14472;SDS011;7322;50.872;4.386;2023-05-07T05:40:19;4.93;;;1.55;;
14472;SDS011;7322;50.872;4.386;2023-05-07T05:42:49;3.45;;;1.70;;
14472;SDS011;7322;50.872;4.386;2023-05-07T05:48:02;3.13;;;1.42;;
14472;SDS011;7322;50.872;4.386;2023-05-07T05:50:29;2.22;;;1.58;;
14472;SDS011;7322;50.872;4.386;2023-05-07T05:53:04;5.72;;;1.88;;
14472;SDS011;7322;50.872;4.386;2023-05-07T05:55:39;5.22;;;1.70;;
14472;SDS011;7322;50.872;4.386;2023-05-07T05:58:13;4.13;;;1.85;;
14472;SDS011;7322;50.872;4.386;2023-05-07T06:00:42;3.75;;;1.40;;
14472;SDS011;7322;50.872;4.386;2023-05-07T06:03:22;3.88;;;1.90;;
14472;SDS011;7322;50.872;4.386;2023-05-07T06:05:49;3.97;;;1.73;;
14472;SDS011;7322;50.872;4.386;2023-05-07T06:08:17;4.90;;;1.90;;
14472;SDS011;7322;50.872;4.386;2023-05-07T06:10:45;4.97;;;1.63;;
14472;SDS011;7322;50.872;4.386;2023-05-07T06:13:15;3.08;;;1.58;;
14472;SDS011;7322;50.872;4.386;2023-05-07T06:15:43;3.10;;;1.63;;
14472;SDS011;7322;50.872;4.386;2023-05-07T06:18:10;2.15;;;1.63;;
14472;SDS011;7322;50.872;4.386;2023-05-07T06:20:38;3.45;;;1.45;;
14472;SDS011;7322;50.872;4.386;2023-05-07T06:23:05;4.20;;;1.77;;
14472;SDS011;7322;50.872;4.386;2023-05-07T06:25:32;2.25;;;1.23;;
14472;SDS011;7322;50.872;4.386;2023-05-07T06:27:59;2.58;;;1.55;;
14472;SDS011;7322;50.872;4.386;2023-05-07T06:30:27;2.20;;;1.55;;
14472;SDS011;7322;50.872;4.386;2023-05-07T06:32:55;3.05;;;1.88;;
14472;SDS011;7322;50.872;4.386;2023-05-07T06:35:22;2.55;;;1.50;;
14472;SDS011;7322;50.872;4.386;2023-05-07T06:37:48;2.85;;;1.75;;
14472;SDS011;7322;50.872;4.386;2023-05-07T06:40:15;3.08;;;1.73;;
14472;SDS011;7322;50.872;4.386;2023-05-07T06:42:43;2.50;;;1.30;;
14472;SDS011;7322;50.872;4.386;2023-05-07T06:45:10;2.70;;;1.50;;
14472;SDS011;7322;50.872;4.386;2023-05-07T06:47:39;4.78;;;1.60;;
14472;SDS011;7322;50.872;4.386;2023-05-07T06:50:06;3.13;;;1.70;;
14472;SDS011;7322;50.872;4.386;2023-05-07T06:52:35;2.65;;;1.55;;
14472;SDS011;7322;50.872;4.386;2023-05-07T06:55:02;3.75;;;1.80;;
14472;SDS011;7322;50.872;4.386;2023-05-07T06:57:32;2.67;;;1.50;;
14472;SDS011;7322;50.872;4.386;2023-05-07T07:00:00;5.55;;;1.77;;
14472;SDS011;7322;50.872;4.386;2023-05-07T07:02:27;2.90;;;1.55;;
14472;SDS011;7322;50.872;4.386;2023-05-07T07:04:57;4.30;;;1.60;;
14472;SDS011;7322;50.872;4.386;2023-05-07T07:07:24;3.80;;;1.73;;
14472;SDS011;7322;50.872;4.386;2023-05-07T07:12:27;3.65;;;1.60;;
14472;SDS011;7322;50.872;4.386;2023-05-07T07:15:03;3.28;;;1.60;;
14472;SDS011;7322;50.872;4.386;2023-05-07T07:17:30;3.08;;;1.38;;
14472;SDS011;7322;50.872;4.386;2023-05-07T07:20:08;3.03;;;1.58;;
14472;SDS011;7322;50.872;4.386;2023-05-07T07:22:36;4.47;;;1.83;;
14472;SDS011;7322;50.872;4.386;2023-05-07T07:25:05;2.15;;;1.23;;
14472;SDS011;7322;50.872;4.386;2023-05-07T07:27:34;3.95;;;1.60;;
14472;SDS011;7322;50.872;4.386;2023-05-07T07:30:03;4.05;;;1.60;;
14472;SDS011;7322;50.872;4.386;2023-05-07T07:32:38;3.88;;;1.90;;
14472;SDS011;7322;50.872;4.386;2023-05-07T07:35:19;4.32;;;1.90;;
14472;SDS011;7322;50.872;4.386;2023-05-07T07:37:51;3.90;;;1.92;;
14472;SDS011;7322;50.872;4.386;2023-05-07T07:40:34;2.83;;;1.75;;
14472;SDS011;7322;50.872;4.386;2023-05-07T07:43:11;5.30;;;2.05;;
14472;SDS011;7322;50.872;4.386;2023-05-07T07:45:49;4.07;;;1.88;;
14472;SDS011;7322;50.872;4.386;2023-05-07T07:48:27;4.35;;;1.83;;
14472;SDS011;7322;50.872;4.386;2023-05-07T07:50:55;3.13;;;1.80;;
14472;SDS011;7322;50.872;4.386;2023-05-07T07:58:55;3.80;;;2.10;;
14472;SDS011;7322;50.872;4.386;2023-05-07T08:01:38;5.90;;;2.15;;
14472;SDS011;7322;50.872;4.386;2023-05-07T08:04:05;6.70;;;2.28;;
14472;SDS011;7322;50.872;4.386;2023-05-07T08:06:39;5.57;;;2.05;;
14472;SDS011;7322;50.872;4.386;2023-05-07T08:09:14;6.85;;;2.78;;
14472;SDS011;7322;50.872;4.386;2023-05-07T08:11:54;6.57;;;2.72;;
14472;SDS011;7322;50.872;4.386;2023-05-07T08:17:27;8.30;;;2.53;;
14472;SDS011;7322;50.872;4.386;2023-05-07T08:25:26;8.40;;;2.90;;
14472;SDS011;7322;50.872;4.386;2023-05-07T08:30:40;5.28;;;2.83;;
14472;SDS011;7322;50.872;4.386;2023-05-07T08:33:25;8.00;;;2.90;;
14472;SDS011;7322;50.872;4.386;2023-05-07T08:35:54;10.25;;;3.20;;
14472;SDS011;7322;50.872;4.386;2023-05-07T08:38:30;6.22;;;3.08;;
14472;SDS011;7322;50.872;4.386;2023-05-07T08:41:01;7.43;;;3.17;;
14472;SDS011;7322;50.872;4.386;2023-05-07T08:43:30;7.25;;;3.00;;
14472;SDS011;7322;50.872;4.386;2023-05-07T08:46:01;5.13;;;3.20;;
14472;SDS011;7322;50.872;4.386;2023-05-07T08:48:36;5.75;;;2.90;;
14472;SDS011;7322;50.872;4.386;2023-05-07T08:51:04;6.50;;;2.92;;
14472;SDS011;7322;50.872;4.386;2023-05-07T08:53:33;8.25;;;2.95;;
14472;SDS011;7322;50.872;4.386;2023-05-07T08:58:42;8.43;;;2.85;;
14472;SDS011;7322;50.872;4.386;2023-05-07T09:01:09;6.47;;;3.38;;
14472;SDS011;7322;50.872;4.386;2023-05-07T09:03:43;6.75;;;2.92;;
14472;SDS011;7322;50.872;4.386;2023-05-07T09:08:50;7.72;;;3.00;;
14472;SDS011;7322;50.872;4.386;2023-05-07T09:11:31;8.45;;;3.38;;
14472;SDS011;7322;50.872;4.386;2023-05-07T09:13:59;7.07;;;2.70;;
14472;SDS011;7322;50.872;4.386;2023-05-07T09:16:29;5.50;;;2.58;;
14472;SDS011;7322;50.872;4.386;2023-05-07T09:19:02;6.55;;;2.70;;
14472;SDS011;7322;50.872;4.386;2023-05-07T09:21:37;7.35;;;2.67;;
14472;SDS011;7322;50.872;4.386;2023-05-07T09:24:08;2.92;;;2.17;;
14472;SDS011;7322;50.872;4.386;2023-05-07T09:29:27;5.90;;;2.80;;
14472;SDS011;7322;50.872;4.386;2023-05-07T09:34:41;4.70;;;2.38;;
14472;SDS011;7322;50.872;4.386;2023-05-07T09:37:14;4.32;;;2.13;;
14472;SDS011;7322;50.872;4.386;2023-05-07T09:39:45;4.70;;;2.30;;
14472;SDS011;7322;50.872;4.386;2023-05-07T09:42:14;5.28;;;2.35;;
14472;SDS011;7322;50.872;4.386;2023-05-07T09:44:44;5.85;;;2.20;;
14472;SDS011;7322;50.872;4.386;2023-05-07T09:47:18;6.45;;;2.30;;
14472;SDS011;7322;50.872;4.386;2023-05-07T09:49:47;7.15;;;2.45;;
14472;SDS011;7322;50.872;4.386;2023-05-07T09:52:17;5.32;;;2.20;;
14472;SDS011;7322;50.872;4.386;2023-05-07T09:55:16;4.13;;;2.10;;
14472;SDS011;7322;50.872;4.386;2023-05-07T09:57:44;3.50;;;2.10;;
14472;SDS011;7322;50.872;4.386;2023-05-07T10:00:14;4.32;;;2.25;;
14472;SDS011;7322;50.872;4.386;2023-05-07T10:02:44;4.28;;;2.15;;
14472;SDS011;7322;50.872;4.386;2023-05-07T10:05:14;6.60;;;2.03;;
14472;SDS011;7322;50.872;4.386;2023-05-07T10:07:49;3.38;;;2.10;;
14472;SDS011;7322;50.872;4.386;2023-05-07T10:10:18;6.22;;;2.45;;
14472;SDS011;7322;50.872;4.386;2023-05-07T10:12:46;6.57;;;2.20;;
14472;SDS011;7322;50.872;4.386;2023-05-07T10:15:14;5.07;;;2.13;;
14472;SDS011;7322;50.872;4.386;2023-05-07T10:17:42;5.57;;;2.20;;
14472;SDS011;7322;50.872;4.386;2023-05-07T10:20:15;3.40;;;1.80;;
14472;SDS011;7322;50.872;4.386;2023-05-07T10:22:48;3.78;;;1.90;;
14472;SDS011;7322;50.872;4.386;2023-05-07T10:25:21;3.40;;;2.10;;
14472;SDS011;7322;50.872;4.386;2023-05-07T10:27:51;5.85;;;1.98;;
14472;SDS011;7322;50.872;4.386;2023-05-07T10:30:23;3.88;;;2.00;;
14472;SDS011;7322;50.872;4.386;2023-05-07T10:33:01;3.08;;;2.10;;
14472;SDS011;7322;50.872;4.386;2023-05-07T10:35:40;4.47;;;1.77;;
14472;SDS011;7322;50.872;4.386;2023-05-07T10:38:14;2.75;;;1.83;;
14472;SDS011;7322;50.872;4.386;2023-05-07T10:40:43;4.20;;;1.55;;
14472;SDS011;7322;50.872;4.386;2023-05-07T10:43:10;3.22;;;1.70;;
14472;SDS011;7322;50.872;4.386;2023-05-07T10:51:44;2.80;;;2.20;;
14472;SDS011;7322;50.872;4.386;2023-05-07T10:54:24;4.93;;;1.90;;
14472;SDS011;7322;50.872;4.386;2023-05-07T10:59:45;3.83;;;1.90;;
14472;SDS011;7322;50.872;4.386;2023-05-07T11:05:44;3.92;;;1.95;;
14472;SDS011;7322;50.872;4.386;2023-05-07T11:08:14;4.57;;;2.10;;
14472;SDS011;7322;50.872;4.386;2023-05-07T11:16:38;3.00;;;1.60;;
14472;SDS011;7322;50.872;4.386;2023-05-07T11:19:09;3.92;;;1.65;;
14472;SDS011;7322;50.872;4.386;2023-05-07T11:21:44;3.75;;;1.90;;
14472;SDS011;7322;50.872;4.386;2023-05-07T11:24:11;3.42;;;1.80;;
14472;SDS011;7322;50.872;4.386;2023-05-07T11:29:15;5.80;;;1.90;;
14472;SDS011;7322;50.872;4.386;2023-05-07T11:31:45;5.78;;;1.98;;
14472;SDS011;7322;50.872;4.386;2023-05-07T11:34:15;3.17;;;1.67;;
14472;SDS011;7322;50.872;4.386;2023-05-07T11:36:52;7.57;;;1.95;;
14472;SDS011;7322;50.872;4.386;2023-05-07T11:39:27;3.97;;;1.83;;
14472;SDS011;7322;50.872;4.386;2023-05-07T11:42:25;3.58;;;1.60;;
14472;SDS011;7322;50.872;4.386;2023-05-07T11:44:55;3.45;;;1.70;;
14472;SDS011;7322;50.872;4.386;2023-05-07T11:47:32;4.32;;;1.63;;
14472;SDS011;7322;50.872;4.386;2023-05-07T11:50:03;4.38;;;1.60;;
14472;SDS011;7322;50.872;4.386;2023-05-07T11:52:32;4.57;;;1.52;;
14472;SDS011;7322;50.872;4.386;2023-05-07T11:55:06;4.35;;;1.80;;
14472;SDS011;7322;50.872;4.386;2023-05-07T11:57:40;4.22;;;1.80;;
14472;SDS011;7322;50.872;4.386;2023-05-07T12:02:46;4.90;;;1.77;;
14472;SDS011;7322;50.872;4.386;2023-05-07T12:08:08;2.75;;;1.85;;
14472;SDS011;7322;50.872;4.386;2023-05-07T12:10:44;2.42;;;1.70;;
14472;SDS011;7322;50.872;4.386;2023-05-07T12:13:29;3.08;;;1.63;;
14472;SDS011;7322;50.872;4.386;2023-05-07T12:16:08;2.70;;;1.55;;
14472;SDS011;7322;50.872;4.386;2023-05-07T12:18:41;4.13;;;1.60;;
14472;SDS011;7322;50.872;4.386;2023-05-07T12:21:21;4.40;;;1.70;;
14472;SDS011;7322;50.872;4.386;2023-05-07T12:23:50;3.15;;;1.60;;
14472;SDS011;7322;50.872;4.386;2023-05-07T12:32:15;4.93;;;1.60;;
14472;SDS011;7322;50.872;4.386;2023-05-07T12:34:46;6.68;;;1.75;;
14472;SDS011;7322;50.872;4.386;2023-05-07T12:37:23;3.03;;;1.70;;
14472;SDS011;7322;50.872;4.386;2023-05-07T12:40:03;2.72;;;1.50;;
14472;SDS011;7322;50.872;4.386;2023-05-07T12:42:38;4.10;;;1.40;;
14472;SDS011;7322;50.872;4.386;2023-05-07T12:45:15;2.50;;;1.50;;
14472;SDS011;7322;50.872;4.386;2023-05-07T12:47:44;3.15;;;1.70;;
14472;SDS011;7322;50.872;4.386;2023-05-07T12:50:16;3.00;;;1.35;;
14472;SDS011;7322;50.872;4.386;2023-05-07T12:52:45;2.47;;;1.73;;
14472;SDS011;7322;50.872;4.386;2023-05-07T12:55:15;3.65;;;1.48;;
14472;SDS011;7322;50.872;4.386;2023-05-07T12:57:45;5.05;;;1.63;;
14472;SDS011;7322;50.872;4.386;2023-05-07T13:00:15;2.70;;;1.58;;
14472;SDS011;7322;50.872;4.386;2023-05-07T13:02:45;2.60;;;1.80;;
14472;SDS011;7322;50.872;4.386;2023-05-07T13:05:16;2.92;;;1.67;;
14472;SDS011;7322;50.872;4.386;2023-05-07T13:07:52;3.42;;;1.60;;
14472;SDS011;7322;50.872;4.386;2023-05-07T13:10:26;4.10;;;1.60;;
14472;SDS011;7322;50.872;4.386;2023-05-07T13:15:52;2.47;;;1.50;;
14472;SDS011;7322;50.872;4.386;2023-05-07T13:21:15;2.28;;;1.55;;
14472;SDS011;7322;50.872;4.386;2023-05-07T13:23:44;2.60;;;1.70;;
14472;SDS011;7322;50.872;4.386;2023-05-07T13:26:15;4.18;;;2.05;;
14472;SDS011;7322;50.872;4.386;2023-05-07T13:28:44;2.15;;;1.40;;
14472;SDS011;7322;50.872;4.386;2023-05-07T13:33:42;2.08;;;1.42;;
14472;SDS011;7322;50.872;4.386;2023-05-07T13:36:17;1.92;;;1.40;;
14472;SDS011;7322;50.872;4.386;2023-05-07T13:38:45;2.38;;;1.63;;
14472;SDS011;7322;50.872;4.386;2023-05-07T13:41:30;2.63;;;1.73;;
14472;SDS011;7322;50.872;4.386;2023-05-07T13:46:41;2.13;;;1.50;;
14472;SDS011;7322;50.872;4.386;2023-05-07T13:49:14;2.17;;;1.58;;
14472;SDS011;7322;50.872;4.386;2023-05-07T13:51:46;2.75;;;1.95;;
14472;SDS011;7322;50.872;4.386;2023-05-07T13:54:14;1.98;;;1.50;;
14472;SDS011;7322;50.872;4.386;2023-05-07T13:59:19;2.28;;;1.70;;
14472;SDS011;7322;50.872;4.386;2023-05-07T14:01:49;2.53;;;1.50;;
14472;SDS011;7322;50.872;4.386;2023-05-07T14:07:08;3.08;;;1.70;;
14472;SDS011;7322;50.872;4.386;2023-05-07T14:09:36;3.35;;;1.60;;
14472;SDS011;7322;50.872;4.386;2023-05-07T14:12:14;1.60;;;1.50;;
14472;SDS011;7322;50.872;4.386;2023-05-07T14:26:51;3.08;;;2.10;;
14472;SDS011;7322;50.872;4.386;2023-05-07T14:32:24;2.60;;;1.80;;
14472;SDS011;7322;50.872;4.386;2023-05-07T14:34:51;1.98;;;1.73;;
14472;SDS011;7322;50.872;4.386;2023-05-07T14:40:18;2.17;;;1.70;;
14472;SDS011;7322;50.872;4.386;2023-05-07T14:45:44;2.40;;;1.95;;
14472;SDS011;7322;50.872;4.386;2023-05-07T14:48:14;2.17;;;1.95;;
14472;SDS011;7322;50.872;4.386;2023-05-07T14:50:46;3.15;;;1.88;;
14472;SDS011;7322;50.872;4.386;2023-05-07T14:53:14;3.65;;;1.98;;
14472;SDS011;7322;50.872;4.386;2023-05-07T14:58:45;3.40;;;1.98;;
14472;SDS011;7322;50.872;4.386;2023-05-07T15:04:21;2.60;;;1.95;;
14472;SDS011;7322;50.872;4.386;2023-05-07T15:06:56;2.58;;;2.20;;
14472;SDS011;7322;50.872;4.386;2023-05-07T15:09:24;4.30;;;2.10;;
14472;SDS011;7322;50.872;4.386;2023-05-07T15:12:10;2.80;;;2.00;;
14472;SDS011;7322;50.872;4.386;2023-05-07T15:14:44;3.17;;;2.25;;
14472;SDS011;7322;50.872;4.386;2023-05-07T15:20:14;2.10;;;1.90;;
14472;SDS011;7322;50.872;4.386;2023-05-07T15:22:44;2.67;;;2.10;;
14472;SDS011;7322;50.872;4.386;2023-05-07T15:28:12;2.33;;;1.88;;
14472;SDS011;7322;50.872;4.386;2023-05-07T15:30:45;2.95;;;2.10;;
14472;SDS011;7322;50.872;4.386;2023-05-07T15:33:12;2.40;;;1.95;;
14472;SDS011;7322;50.872;4.386;2023-05-07T15:35:39;3.05;;;1.90;;
14472;SDS011;7322;50.872;4.386;2023-05-07T15:38:14;2.20;;;2.00;;
14472;SDS011;7322;50.872;4.386;2023-05-07T15:40:47;3.33;;;2.10;;
14472;SDS011;7322;50.872;4.386;2023-05-07T15:54:28;2.80;;;2.00;;
14472;SDS011;7322;50.872;4.386;2023-05-07T15:57:14;3.13;;;1.90;;
14472;SDS011;7322;50.872;4.386;2023-05-07T15:59:45;2.17;;;1.98;;
14472;SDS011;7322;50.872;4.386;2023-05-07T16:02:14;2.22;;;1.92;;
14472;SDS011;7322;50.872;4.386;2023-05-07T16:04:48;2.92;;;2.10;;
14472;SDS011;7322;50.872;4.386;2023-05-07T16:12:35;2.45;;;2.00;;
14472;SDS011;7322;50.872;4.386;2023-05-07T16:18:14;2.28;;;2.08;;
14472;SDS011;7322;50.872;4.386;2023-05-07T16:26:17;2.17;;;2.00;;
14472;SDS011;7322;50.872;4.386;2023-05-07T16:28:44;2.08;;;1.90;;
14472;SDS011;7322;50.872;4.386;2023-05-07T16:34:15;2.40;;;2.00;;
14472;SDS011;7322;50.872;4.386;2023-05-07T16:36:58;2.08;;;1.80;;
14472;SDS011;7322;50.872;4.386;2023-05-07T16:41:58;3.13;;;2.00;;
14472;SDS011;7322;50.872;4.386;2023-05-07T16:44:32;3.20;;;2.30;;
14472;SDS011;7322;50.872;4.386;2023-05-07T16:47:12;2.30;;;2.10;;
14472;SDS011;7322;50.872;4.386;2023-05-07T16:49:42;2.30;;;2.10;;
14472;SDS011;7322;50.872;4.386;2023-05-07T16:54:56;3.10;;;2.13;;
14472;SDS011;7322;50.872;4.386;2023-05-07T16:57:26;2.30;;;2.08;;
14472;SDS011;7322;50.872;4.386;2023-05-07T16:59:55;3.72;;;2.40;;
14472;SDS011;7322;50.872;4.386;2023-05-07T17:04:58;2.30;;;2.10;;
14472;SDS011;7322;50.872;4.386;2023-05-07T17:07:26;3.05;;;2.20;;
14472;SDS011;7322;50.872;4.386;2023-05-07T17:10:00;3.10;;;2.30;;
14472;SDS011;7322;50.872;4.386;2023-05-07T17:12:29;4.75;;;2.78;;
14472;SDS011;7322;50.872;4.386;2023-05-07T17:15:15;3.28;;;2.60;;
14472;SDS011;7322;50.872;4.386;2023-05-07T17:17:42;2.75;;;2.55;;
14472;SDS011;7322;50.872;4.386;2023-05-07T17:22:44;2.65;;;2.22;;
14472;SDS011;7322;50.872;4.386;2023-05-07T17:27:56;4.65;;;3.33;;
14472;SDS011;7322;50.872;4.386;2023-05-07T17:30:29;4.72;;;3.20;;
14472;SDS011;7322;50.872;4.386;2023-05-07T17:33:04;4.10;;;3.30;;
14472;SDS011;7322;50.872;4.386;2023-05-07T17:35:39;6.60;;;3.35;;
14472;SDS011;7322;50.872;4.386;2023-05-07T17:38:14;7.80;;;4.30;;
14472;SDS011;7322;50.872;4.386;2023-05-07T17:40:42;8.00;;;4.53;;
14472;SDS011;7322;50.872;4.386;2023-05-07T17:43:26;7.70;;;5.00;;
14472;SDS011;7322;50.872;4.386;2023-05-07T17:51:47;9.73;;;4.70;;
14472;SDS011;7322;50.872;4.386;2023-05-07T17:54:14;10.13;;;4.30;;
14472;SDS011;7322;50.872;4.386;2023-05-07T17:56:44;7.40;;;4.55;;
14472;SDS011;7322;50.872;4.386;2023-05-07T18:02:15;8.90;;;4.30;;
14472;SDS011;7322;50.872;4.386;2023-05-07T18:10:01;8.65;;;4.30;;
14472;SDS011;7322;50.872;4.386;2023-05-07T18:12:36;7.45;;;4.40;;
14472;SDS011;7322;50.872;4.386;2023-05-07T18:15:09;6.72;;;4.25;;
14472;SDS011;7322;50.872;4.386;2023-05-07T18:17:44;6.90;;;4.35;;
14472;SDS011;7322;50.872;4.386;2023-05-07T18:20:27;8.52;;;4.43;;
14472;SDS011;7322;50.872;4.386;2023-05-07T18:23:01;8.52;;;4.50;;
14472;SDS011;7322;50.872;4.386;2023-05-07T18:25:43;8.63;;;4.38;;
14472;SDS011;7322;50.872;4.386;2023-05-07T18:28:12;8.27;;;4.18;;
14472;SDS011;7322;50.872;4.386;2023-05-07T18:33:27;8.05;;;4.45;;
14472;SDS011;7322;50.872;4.386;2023-05-07T18:35:54;5.63;;;3.70;;
14472;SDS011;7322;50.872;4.386;2023-05-07T18:38:25;6.07;;;4.28;;